sensor_id;sensor_type;location;lat;lon;timestamp;temperature;humidity
18717;DHT22;9487;50.892;6.906;2022-09-03T00:02:24;18.70;99.90
18717;DHT22;9487;50.892;6.906;2022-09-03T00:05:02;18.80;99.90
18717;DHT22;9487;50.892;6.906;2022-09-03T00:07:35;18.70;99.90
18717;DHT22;9487;50.892;6.906;2022-09-03T00:10:08;18.70;99.90
18717;DHT22;9487;50.892;6.906;2022-09-03T00:12:39;18.70;99.90
18717;DHT22;9487;50.892;6.906;2022-09-03T00:15:11;18.70;99.90
18717;DHT22;9487;50.892;6.906;2022-09-03T00:17:41;18.70;99.90
18717;DHT22;9487;50.892;6.906;2022-09-03T00:20:14;18.70;99.90
18717;DHT22;9487;50.892;6.906;2022-09-03T00:22:45;18.80;99.90
18717;DHT22;9487;50.892;6.906;2022-09-03T00:25:17;18.70;99.90
18717;DHT22;9487;50.892;6.906;2022-09-03T00:27:47;18.70;99.90
18717;DHT22;9487;50.892;6.906;2022-09-03T00:30:18;18.60;99.90
18717;DHT22;9487;50.892;6.906;2022-09-03T00:32:47;18.60;99.90
18717;DHT22;9487;50.892;6.906;2022-09-03T00:35:22;18.60;99.90
18717;DHT22;9487;50.892;6.906;2022-09-03T00:37:50;18.60;99.90
18717;DHT22;9487;50.892;6.906;2022-09-03T00:40:34;18.60;99.90
18717;DHT22;9487;50.892;6.906;2022-09-03T00:43:07;18.60;99.90
18717;DHT22;9487;50.892;6.906;2022-09-03T00:45:40;18.40;99.90
18717;DHT22;9487;50.892;6.906;2022-09-03T00:48:16;18.40;99.90
18717;DHT22;9487;50.892;6.906;2022-09-03T00:51:02;18.40;99.90
18717;DHT22;9487;50.892;6.906;2022-09-03T00:53:38;18.40;99.90
18717;DHT22;9487;50.892;6.906;2022-09-03T00:56:12;18.40;99.90
18717;DHT22;9487;50.892;6.906;2022-09-03T00:58:53;18.50;99.90
18717;DHT22;9487;50.892;6.906;2022-09-03T01:01:28;18.50;99.90
18717;DHT22;9487;50.892;6.906;2022-09-03T01:04:07;18.60;99.90
18717;DHT22;9487;50.892;6.906;2022-09-03T01:06:43;18.60;99.90
18717;DHT22;9487;50.892;6.906;2022-09-03T01:09:28;18.50;99.90
18717;DHT22;9487;50.892;6.906;2022-09-03T01:12:00;18.50;99.90
18717;DHT22;9487;50.892;6.906;2022-09-03T01:14:47;18.60;99.90
18717;DHT22;9487;50.892;6.906;2022-09-03T01:17:23;18.50;99.90
18717;DHT22;9487;50.892;6.906;2022-09-03T01:20:17;18.50;99.90
18717;DHT22;9487;50.892;6.906;2022-09-03T01:23:23;18.50;99.90
18717;DHT22;9487;50.892;6.906;2022-09-03T01:26:09;18.50;99.90
18717;DHT22;9487;50.892;6.906;2022-09-03T01:28:53;18.40;99.90
18717;DHT22;9487;50.892;6.906;2022-09-03T01:31:30;18.40;99.90
18717;DHT22;9487;50.892;6.906;2022-09-03T01:34:08;18.40;99.90
18717;DHT22;9487;50.892;6.906;2022-09-03T01:36:42;18.40;99.90
18717;DHT22;9487;50.892;6.906;2022-09-03T01:39:15;18.30;99.90
18717;DHT22;9487;50.892;6.906;2022-09-03T01:41:50;18.10;99.90
18717;DHT22;9487;50.892;6.906;2022-09-03T01:47:56;17.90;99.90
18717;DHT22;9487;50.892;6.906;2022-09-03T01:50:38;17.80;99.90
18717;DHT22;9487;50.892;6.906;2022-09-03T01:53:17;17.70;99.90
18717;DHT22;9487;50.892;6.906;2022-09-03T01:55:57;17.70;99.90
18717;DHT22;9487;50.892;6.906;2022-09-03T01:58:36;17.80;99.90
18717;DHT22;9487;50.892;6.906;2022-09-03T02:01:10;17.90;99.90
18717;DHT22;9487;50.892;6.906;2022-09-03T02:03:41;18.00;99.90
18717;DHT22;9487;50.892;6.906;2022-09-03T02:06:10;18.00;99.90
18717;DHT22;9487;50.892;6.906;2022-09-03T02:08:38;18.00;99.90
18717;DHT22;9487;50.892;6.906;2022-09-03T02:11:08;18.00;99.90
18717;DHT22;9487;50.892;6.906;2022-09-03T02:13:37;18.00;99.90
18717;DHT22;9487;50.892;6.906;2022-09-03T02:16:11;18.10;99.90
18717;DHT22;9487;50.892;6.906;2022-09-03T02:18:42;18.10;99.90
18717;DHT22;9487;50.892;6.906;2022-09-03T02:21:12;18.10;99.90
18717;DHT22;9487;50.892;6.906;2022-09-03T02:23:41;18.10;99.90
18717;DHT22;9487;50.892;6.906;2022-09-03T02:26:10;18.10;99.90
18717;DHT22;9487;50.892;6.906;2022-09-03T02:28:38;18.10;99.90
18717;DHT22;9487;50.892;6.906;2022-09-03T02:31:05;18.10;99.90
18717;DHT22;9487;50.892;6.906;2022-09-03T02:33:36;18.10;99.90
18717;DHT22;9487;50.892;6.906;2022-09-03T02:36:05;18.10;99.90
18717;DHT22;9487;50.892;6.906;2022-09-03T02:38:33;18.00;99.90
18717;DHT22;9487;50.892;6.906;2022-09-03T02:41:00;17.90;99.90
18717;DHT22;9487;50.892;6.906;2022-09-03T02:43:33;17.90;99.90
18717;DHT22;9487;50.892;6.906;2022-09-03T02:46:05;17.90;99.90
18717;DHT22;9487;50.892;6.906;2022-09-03T02:48:35;17.80;99.90
18717;DHT22;9487;50.892;6.906;2022-09-03T02:53:36;17.80;99.90
18717;DHT22;9487;50.892;6.906;2022-09-03T02:56:03;17.70;99.90
18717;DHT22;9487;50.892;6.906;2022-09-03T02:58:31;17.80;99.90
18717;DHT22;9487;50.892;6.906;2022-09-03T03:00:58;17.70;99.90
18717;DHT22;9487;50.892;6.906;2022-09-03T03:03:25;17.70;99.90
18717;DHT22;9487;50.892;6.906;2022-09-03T03:05:55;17.60;99.90
18717;DHT22;9487;50.892;6.906;2022-09-03T03:08:23;17.70;99.90
18717;DHT22;9487;50.892;6.906;2022-09-03T03:10:53;17.60;99.90
18717;DHT22;9487;50.892;6.906;2022-09-03T03:13:21;17.60;99.90
18717;DHT22;9487;50.892;6.906;2022-09-03T03:15:48;17.60;99.90
18717;DHT22;9487;50.892;6.906;2022-09-03T03:18:15;17.60;99.90
18717;DHT22;9487;50.892;6.906;2022-09-03T03:20:42;17.60;99.90
18717;DHT22;9487;50.892;6.906;2022-09-03T03:23:11;17.60;99.90
18717;DHT22;9487;50.892;6.906;2022-09-03T03:25:38;17.70;99.90
18717;DHT22;9487;50.892;6.906;2022-09-03T03:28:06;17.70;99.90
18717;DHT22;9487;50.892;6.906;2022-09-03T03:30:36;17.70;99.90
18717;DHT22;9487;50.892;6.906;2022-09-03T03:33:05;17.70;99.90
18717;DHT22;9487;50.892;6.906;2022-09-03T03:35:32;17.70;99.90
18717;DHT22;9487;50.892;6.906;2022-09-03T03:37:59;17.70;99.90
18717;DHT22;9487;50.892;6.906;2022-09-03T03:40:27;17.60;99.90
18717;DHT22;9487;50.892;6.906;2022-09-03T03:42:56;17.60;99.90
18717;DHT22;9487;50.892;6.906;2022-09-03T03:45:23;17.60;99.90
18717;DHT22;9487;50.892;6.906;2022-09-03T03:47:50;17.70;99.90
18717;DHT22;9487;50.892;6.906;2022-09-03T03:50:17;17.70;99.90
18717;DHT22;9487;50.892;6.906;2022-09-03T03:52:44;17.70;99.90
18717;DHT22;9487;50.892;6.906;2022-09-03T03:55:12;17.80;99.90
18717;DHT22;9487;50.892;6.906;2022-09-03T03:57:40;17.80;99.90
18717;DHT22;9487;50.892;6.906;2022-09-03T04:00:08;17.80;99.90
18717;DHT22;9487;50.892;6.906;2022-09-03T04:02:35;17.80;99.90
18717;DHT22;9487;50.892;6.906;2022-09-03T04:05:02;17.80;99.90
18717;DHT22;9487;50.892;6.906;2022-09-03T04:07:29;17.80;99.90
18717;DHT22;9487;50.892;6.906;2022-09-03T04:09:56;17.70;99.90
18717;DHT22;9487;50.892;6.906;2022-09-03T04:12:23;17.70;99.90
18717;DHT22;9487;50.892;6.906;2022-09-03T04:14:51;17.80;99.90
18717;DHT22;9487;50.892;6.906;2022-09-03T04:17:18;17.80;99.90
18717;DHT22;9487;50.892;6.906;2022-09-03T04:19:44;17.70;99.90
18717;DHT22;9487;50.892;6.906;2022-09-03T04:22:12;17.70;99.90
18717;DHT22;9487;50.892;6.906;2022-09-03T04:24:40;17.60;99.90
18717;DHT22;9487;50.892;6.906;2022-09-03T04:27:07;17.60;99.90
18717;DHT22;9487;50.892;6.906;2022-09-03T04:29:34;17.40;99.90
18717;DHT22;9487;50.892;6.906;2022-09-03T04:32:02;17.30;99.90
18717;DHT22;9487;50.892;6.906;2022-09-03T04:34:47;17.20;99.90
18717;DHT22;9487;50.892;6.906;2022-09-03T04:37:13;17.10;99.90
18717;DHT22;9487;50.892;6.906;2022-09-03T04:39:41;17.20;99.90
18717;DHT22;9487;50.892;6.906;2022-09-03T04:42:07;17.30;99.90
18717;DHT22;9487;50.892;6.906;2022-09-03T04:44:34;17.40;99.90
18717;DHT22;9487;50.892;6.906;2022-09-03T04:47:04;17.50;99.90
18717;DHT22;9487;50.892;6.906;2022-09-03T04:49:31;17.40;99.90
18717;DHT22;9487;50.892;6.906;2022-09-03T04:51:59;17.40;99.90
18717;DHT22;9487;50.892;6.906;2022-09-03T04:54:25;17.30;99.90
18717;DHT22;9487;50.892;6.906;2022-09-03T04:56:52;17.20;99.90
18717;DHT22;9487;50.892;6.906;2022-09-03T04:59:19;17.10;99.90
18717;DHT22;9487;50.892;6.906;2022-09-03T05:01:46;17.10;99.90
18717;DHT22;9487;50.892;6.906;2022-09-03T05:04:14;17.10;99.90
18717;DHT22;9487;50.892;6.906;2022-09-03T05:06:41;17.10;99.90
18717;DHT22;9487;50.892;6.906;2022-09-03T05:09:09;17.10;99.90
18717;DHT22;9487;50.892;6.906;2022-09-03T05:11:36;17.10;99.90
18717;DHT22;9487;50.892;6.906;2022-09-03T05:14:03;17.10;99.90
18717;DHT22;9487;50.892;6.906;2022-09-03T05:16:31;17.10;99.90
18717;DHT22;9487;50.892;6.906;2022-09-03T05:18:59;17.10;99.90
18717;DHT22;9487;50.892;6.906;2022-09-03T05:21:28;17.20;99.90
18717;DHT22;9487;50.892;6.906;2022-09-03T05:23:55;17.20;99.90
18717;DHT22;9487;50.892;6.906;2022-09-03T05:26:24;17.20;99.90
18717;DHT22;9487;50.892;6.906;2022-09-03T05:28:53;17.20;99.90
18717;DHT22;9487;50.892;6.906;2022-09-03T05:31:22;17.30;99.90
18717;DHT22;9487;50.892;6.906;2022-09-03T05:33:52;17.30;99.90
18717;DHT22;9487;50.892;6.906;2022-09-03T05:36:21;17.40;99.90
18717;DHT22;9487;50.892;6.906;2022-09-03T05:38:50;17.40;99.90
18717;DHT22;9487;50.892;6.906;2022-09-03T05:41:19;17.50;99.90
18717;DHT22;9487;50.892;6.906;2022-09-03T05:43:47;17.60;99.90
18717;DHT22;9487;50.892;6.906;2022-09-03T05:46:18;17.70;99.90
18717;DHT22;9487;50.892;6.906;2022-09-03T05:48:45;17.70;99.90
18717;DHT22;9487;50.892;6.906;2022-09-03T05:51:13;17.70;99.90
18717;DHT22;9487;50.892;6.906;2022-09-03T05:53:42;17.80;99.90
18717;DHT22;9487;50.892;6.906;2022-09-03T05:56:12;17.80;99.90
18717;DHT22;9487;50.892;6.906;2022-09-03T05:58:44;17.70;99.90
18717;DHT22;9487;50.892;6.906;2022-09-03T06:01:14;17.70;99.90
18717;DHT22;9487;50.892;6.906;2022-09-03T06:03:42;17.70;99.90
18717;DHT22;9487;50.892;6.906;2022-09-03T06:06:10;17.70;99.90
18717;DHT22;9487;50.892;6.906;2022-09-03T06:08:38;17.70;99.90
18717;DHT22;9487;50.892;6.906;2022-09-03T06:11:06;17.90;99.90
18717;DHT22;9487;50.892;6.906;2022-09-03T06:13:35;18.20;99.90
18717;DHT22;9487;50.892;6.906;2022-09-03T06:16:03;18.40;99.90
18717;DHT22;9487;50.892;6.906;2022-09-03T06:18:31;18.60;99.90
18717;DHT22;9487;50.892;6.906;2022-09-03T06:21:00;18.80;99.90
18717;DHT22;9487;50.892;6.906;2022-09-03T06:23:28;18.90;99.90
18717;DHT22;9487;50.892;6.906;2022-09-03T06:26:03;18.90;99.90
18717;DHT22;9487;50.892;6.906;2022-09-03T06:28:31;19.00;99.90
18717;DHT22;9487;50.892;6.906;2022-09-03T06:31:01;19.00;99.90
18717;DHT22;9487;50.892;6.906;2022-09-03T06:33:29;19.10;99.90
18717;DHT22;9487;50.892;6.906;2022-09-03T06:35:57;19.10;99.90
18717;DHT22;9487;50.892;6.906;2022-09-03T06:38:25;19.20;99.90
18717;DHT22;9487;50.892;6.906;2022-09-03T06:40:53;19.30;99.90
18717;DHT22;9487;50.892;6.906;2022-09-03T06:43:21;19.40;99.90
18717;DHT22;9487;50.892;6.906;2022-09-03T06:45:55;19.40;99.90
18717;DHT22;9487;50.892;6.906;2022-09-03T06:48:23;19.40;99.90
18717;DHT22;9487;50.892;6.906;2022-09-03T06:50:55;19.40;99.90
18717;DHT22;9487;50.892;6.906;2022-09-03T06:53:23;19.50;99.90
18717;DHT22;9487;50.892;6.906;2022-09-03T06:55:55;19.50;99.90
18717;DHT22;9487;50.892;6.906;2022-09-03T06:58:23;19.60;99.90
18717;DHT22;9487;50.892;6.906;2022-09-03T07:00:50;19.60;99.90
18717;DHT22;9487;50.892;6.906;2022-09-03T07:03:19;19.70;99.90
18717;DHT22;9487;50.892;6.906;2022-09-03T07:05:47;19.70;99.90
18717;DHT22;9487;50.892;6.906;2022-09-03T07:08:14;19.70;99.90
18717;DHT22;9487;50.892;6.906;2022-09-03T07:10:45;19.70;99.90
18717;DHT22;9487;50.892;6.906;2022-09-03T07:13:13;19.70;99.90
18717;DHT22;9487;50.892;6.906;2022-09-03T07:15:40;19.60;99.90
18717;DHT22;9487;50.892;6.906;2022-09-03T07:18:07;19.60;99.90
18717;DHT22;9487;50.892;6.906;2022-09-03T07:20:34;19.70;99.90
18717;DHT22;9487;50.892;6.906;2022-09-03T07:23:02;19.70;99.90
18717;DHT22;9487;50.892;6.906;2022-09-03T07:25:30;19.80;99.90
18717;DHT22;9487;50.892;6.906;2022-09-03T07:27:57;19.90;99.90
18717;DHT22;9487;50.892;6.906;2022-09-03T07:30:24;20.00;99.90
18717;DHT22;9487;50.892;6.906;2022-09-03T07:32:52;20.20;99.90
18717;DHT22;9487;50.892;6.906;2022-09-03T07:35:19;20.10;99.90
18717;DHT22;9487;50.892;6.906;2022-09-03T07:37:50;20.30;99.90
18717;DHT22;9487;50.892;6.906;2022-09-03T07:40:18;20.40;99.90
18717;DHT22;9487;50.892;6.906;2022-09-03T07:42:45;20.30;99.90
18717;DHT22;9487;50.892;6.906;2022-09-03T07:45:13;20.40;99.90
18717;DHT22;9487;50.892;6.906;2022-09-03T07:47:45;20.40;99.90
18717;DHT22;9487;50.892;6.906;2022-09-03T07:50:14;20.50;99.90
18717;DHT22;9487;50.892;6.906;2022-09-03T07:52:41;20.40;99.90
18717;DHT22;9487;50.892;6.906;2022-09-03T07:55:09;20.40;99.90
18717;DHT22;9487;50.892;6.906;2022-09-03T07:57:37;20.40;99.90
18717;DHT22;9487;50.892;6.906;2022-09-03T08:00:05;20.50;99.90
18717;DHT22;9487;50.892;6.906;2022-09-03T08:02:32;20.50;99.90
18717;DHT22;9487;50.892;6.906;2022-09-03T08:04:59;20.40;99.90
18717;DHT22;9487;50.892;6.906;2022-09-03T08:07:28;20.30;99.90
18717;DHT22;9487;50.892;6.906;2022-09-03T08:09:55;20.40;99.90
18717;DHT22;9487;50.892;6.906;2022-09-03T08:12:21;20.40;99.90
18717;DHT22;9487;50.892;6.906;2022-09-03T08:14:50;20.50;99.90
18717;DHT22;9487;50.892;6.906;2022-09-03T08:17:17;20.30;99.90
18717;DHT22;9487;50.892;6.906;2022-09-03T08:19:44;20.30;99.90
18717;DHT22;9487;50.892;6.906;2022-09-03T08:22:11;20.40;99.90
18717;DHT22;9487;50.892;6.906;2022-09-03T08:24:38;20.50;99.90
18717;DHT22;9487;50.892;6.906;2022-09-03T08:27:06;20.50;99.90
18717;DHT22;9487;50.892;6.906;2022-09-03T08:29:33;20.50;99.90
18717;DHT22;9487;50.892;6.906;2022-09-03T08:32:03;20.40;99.90
18717;DHT22;9487;50.892;6.906;2022-09-03T08:34:29;20.40;99.90
18717;DHT22;9487;50.892;6.906;2022-09-03T08:36:56;20.30;99.90
18717;DHT22;9487;50.892;6.906;2022-09-03T08:39:26;20.30;99.90
18717;DHT22;9487;50.892;6.906;2022-09-03T08:42:13;20.30;99.90
18717;DHT22;9487;50.892;6.906;2022-09-03T08:44:45;20.30;99.90
18717;DHT22;9487;50.892;6.906;2022-09-03T08:47:17;20.30;99.90
18717;DHT22;9487;50.892;6.906;2022-09-03T08:49:49;20.60;99.90
18717;DHT22;9487;50.892;6.906;2022-09-03T08:52:27;20.50;99.90
18717;DHT22;9487;50.892;6.906;2022-09-03T08:55:02;20.30;99.90
18717;DHT22;9487;50.892;6.906;2022-09-03T08:57:39;20.20;99.90
18717;DHT22;9487;50.892;6.906;2022-09-03T09:00:08;20.00;99.90
18717;DHT22;9487;50.892;6.906;2022-09-03T09:05:38;20.00;99.90
18717;DHT22;9487;50.892;6.906;2022-09-03T09:08:15;19.90;99.90
18717;DHT22;9487;50.892;6.906;2022-09-03T09:10:46;19.80;99.90
18717;DHT22;9487;50.892;6.906;2022-09-03T09:13:19;19.70;99.90
18717;DHT22;9487;50.892;6.906;2022-09-03T09:15:53;19.80;99.90
18717;DHT22;9487;50.892;6.906;2022-09-03T09:18:35;20.00;99.90
18717;DHT22;9487;50.892;6.906;2022-09-03T09:21:09;20.10;99.90
18717;DHT22;9487;50.892;6.906;2022-09-03T09:23:41;20.10;99.90
18717;DHT22;9487;50.892;6.906;2022-09-03T09:26:14;20.20;99.90
18717;DHT22;9487;50.892;6.906;2022-09-03T09:28:44;20.30;99.90
18717;DHT22;9487;50.892;6.906;2022-09-03T09:31:14;20.50;99.90
18717;DHT22;9487;50.892;6.906;2022-09-03T09:33:44;20.40;99.90
18717;DHT22;9487;50.892;6.906;2022-09-03T09:36:13;20.30;99.90
18717;DHT22;9487;50.892;6.906;2022-09-03T09:38:43;20.50;99.90
18717;DHT22;9487;50.892;6.906;2022-09-03T09:41:14;20.80;99.90
18717;DHT22;9487;50.892;6.906;2022-09-03T09:43:42;20.90;99.90
18717;DHT22;9487;50.892;6.906;2022-09-03T09:46:12;20.90;99.90
18717;DHT22;9487;50.892;6.906;2022-09-03T09:48:48;20.80;99.90
18717;DHT22;9487;50.892;6.906;2022-09-03T09:51:20;21.00;99.90
18717;DHT22;9487;50.892;6.906;2022-09-03T09:53:59;21.20;99.90
18717;DHT22;9487;50.892;6.906;2022-09-03T09:56:26;21.50;99.90
18717;DHT22;9487;50.892;6.906;2022-09-03T09:59:01;21.70;99.90
18717;DHT22;9487;50.892;6.906;2022-09-03T10:01:28;22.00;99.90
18717;DHT22;9487;50.892;6.906;2022-09-03T10:03:58;22.10;99.90
18717;DHT22;9487;50.892;6.906;2022-09-03T10:06:27;22.10;99.90
18717;DHT22;9487;50.892;6.906;2022-09-03T10:09:14;22.00;99.90
18717;DHT22;9487;50.892;6.906;2022-09-03T10:11:43;22.00;99.90
18717;DHT22;9487;50.892;6.906;2022-09-03T10:14:19;22.20;99.90
18717;DHT22;9487;50.892;6.906;2022-09-03T10:16:54;22.50;99.90
18717;DHT22;9487;50.892;6.906;2022-09-03T10:19:30;22.80;99.90
18717;DHT22;9487;50.892;6.906;2022-09-03T10:22:04;23.00;99.90
18717;DHT22;9487;50.892;6.906;2022-09-03T10:24:40;23.10;99.90
18717;DHT22;9487;50.892;6.906;2022-09-03T10:27:14;22.90;99.90
18717;DHT22;9487;50.892;6.906;2022-09-03T10:29:43;23.20;99.90
18717;DHT22;9487;50.892;6.906;2022-09-03T10:32:21;23.30;99.90
18717;DHT22;9487;50.892;6.906;2022-09-03T10:35:00;23.50;99.90
18717;DHT22;9487;50.892;6.906;2022-09-03T10:37:36;23.50;99.90
18717;DHT22;9487;50.892;6.906;2022-09-03T10:40:19;23.40;99.90
18717;DHT22;9487;50.892;6.906;2022-09-03T10:43:05;23.10;99.90
18717;DHT22;9487;50.892;6.906;2022-09-03T10:45:38;23.20;99.90
18717;DHT22;9487;50.892;6.906;2022-09-03T10:48:20;23.50;99.90
18717;DHT22;9487;50.892;6.906;2022-09-03T10:50:56;23.70;99.90
18717;DHT22;9487;50.892;6.906;2022-09-03T10:53:41;23.90;99.90
18717;DHT22;9487;50.892;6.906;2022-09-03T10:56:18;24.00;99.90
18717;DHT22;9487;50.892;6.906;2022-09-03T10:58:59;24.10;99.90
18717;DHT22;9487;50.892;6.906;2022-09-03T11:01:38;24.10;99.90
18717;DHT22;9487;50.892;6.906;2022-09-03T11:04:18;24.20;99.90
18717;DHT22;9487;50.892;6.906;2022-09-03T11:06:53;24.10;99.90
18717;DHT22;9487;50.892;6.906;2022-09-03T11:09:23;23.70;99.90
18717;DHT22;9487;50.892;6.906;2022-09-03T11:11:54;23.80;99.90
18717;DHT22;9487;50.892;6.906;2022-09-03T11:14:30;24.00;99.90
18717;DHT22;9487;50.892;6.906;2022-09-03T11:17:03;24.20;99.90
18717;DHT22;9487;50.892;6.906;2022-09-03T11:19:35;24.30;99.90
18717;DHT22;9487;50.892;6.906;2022-09-03T11:22:06;24.40;99.90
18717;DHT22;9487;50.892;6.906;2022-09-03T11:24:36;24.60;99.90
18717;DHT22;9487;50.892;6.906;2022-09-03T11:27:19;24.50;99.90
18717;DHT22;9487;50.892;6.906;2022-09-03T11:29:54;24.50;99.90
18717;DHT22;9487;50.892;6.906;2022-09-03T11:32:29;24.30;99.90
18717;DHT22;9487;50.892;6.906;2022-09-03T11:34:58;24.30;99.90
18717;DHT22;9487;50.892;6.906;2022-09-03T11:37:28;24.20;99.90
18717;DHT22;9487;50.892;6.906;2022-09-03T11:39:57;24.10;99.90
18717;DHT22;9487;50.892;6.906;2022-09-03T11:42:30;24.10;99.90
18717;DHT22;9487;50.892;6.906;2022-09-03T11:45:11;24.30;99.90
18717;DHT22;9487;50.892;6.906;2022-09-03T11:47:40;24.60;99.90
18717;DHT22;9487;50.892;6.906;2022-09-03T11:50:17;24.90;99.90
18717;DHT22;9487;50.892;6.906;2022-09-03T11:52:47;25.00;99.90
18717;DHT22;9487;50.892;6.906;2022-09-03T11:55:31;25.10;99.90
18717;DHT22;9487;50.892;6.906;2022-09-03T11:58:11;25.20;99.90
18717;DHT22;9487;50.892;6.906;2022-09-03T12:00:40;25.20;99.90
18717;DHT22;9487;50.892;6.906;2022-09-03T12:03:13;25.10;99.90
18717;DHT22;9487;50.892;6.906;2022-09-03T12:05:48;25.10;99.90
18717;DHT22;9487;50.892;6.906;2022-09-03T12:08:43;25.00;99.90
18717;DHT22;9487;50.892;6.906;2022-09-03T12:11:27;25.00;99.90
18717;DHT22;9487;50.892;6.906;2022-09-03T12:14:03;25.20;99.90
18717;DHT22;9487;50.892;6.906;2022-09-03T12:16:51;25.20;99.90
18717;DHT22;9487;50.892;6.906;2022-09-03T12:19:28;25.40;99.90
18717;DHT22;9487;50.892;6.906;2022-09-03T12:21:57;25.50;99.90
18717;DHT22;9487;50.892;6.906;2022-09-03T12:24:27;25.50;99.90
18717;DHT22;9487;50.892;6.906;2022-09-03T12:26:57;25.60;99.90
18717;DHT22;9487;50.892;6.906;2022-09-03T12:29:27;25.80;99.90
18717;DHT22;9487;50.892;6.906;2022-09-03T12:31:55;25.80;99.90
18717;DHT22;9487;50.892;6.906;2022-09-03T12:34:23;25.80;99.90
18717;DHT22;9487;50.892;6.906;2022-09-03T12:36:53;25.80;99.90
18717;DHT22;9487;50.892;6.906;2022-09-03T12:39:22;25.80;99.90
18717;DHT22;9487;50.892;6.906;2022-09-03T12:41:57;25.80;99.90
18717;DHT22;9487;50.892;6.906;2022-09-03T12:44:26;25.90;99.90
18717;DHT22;9487;50.892;6.906;2022-09-03T12:47:00;26.00;99.90
18717;DHT22;9487;50.892;6.906;2022-09-03T12:49:33;25.90;99.90
18717;DHT22;9487;50.892;6.906;2022-09-03T12:52:04;26.00;99.90
18717;DHT22;9487;50.892;6.906;2022-09-03T12:54:33;26.00;99.90
18717;DHT22;9487;50.892;6.906;2022-09-03T12:57:04;26.20;99.90
18717;DHT22;9487;50.892;6.906;2022-09-03T12:59:33;26.00;99.90
18717;DHT22;9487;50.892;6.906;2022-09-03T13:02:05;26.00;99.90
18717;DHT22;9487;50.892;6.906;2022-09-03T13:04:38;26.00;99.90
18717;DHT22;9487;50.892;6.906;2022-09-03T13:07:07;26.10;99.90
18717;DHT22;9487;50.892;6.906;2022-09-03T13:09:38;26.00;99.90
18717;DHT22;9487;50.892;6.906;2022-09-03T13:12:19;26.10;99.90
18717;DHT22;9487;50.892;6.906;2022-09-03T13:14:47;26.10;99.90
18717;DHT22;9487;50.892;6.906;2022-09-03T13:17:26;26.00;99.90
18717;DHT22;9487;50.892;6.906;2022-09-03T13:20:24;26.10;99.90
18717;DHT22;9487;50.892;6.906;2022-09-03T13:23:08;26.10;99.90
18717;DHT22;9487;50.892;6.906;2022-09-03T13:25:48;26.20;99.90
18717;DHT22;9487;50.892;6.906;2022-09-03T13:28:26;26.20;99.90
18717;DHT22;9487;50.892;6.906;2022-09-03T13:30:58;26.30;99.90
18717;DHT22;9487;50.892;6.906;2022-09-03T13:33:31;26.30;99.90
18717;DHT22;9487;50.892;6.906;2022-09-03T13:36:03;26.40;99.90
18717;DHT22;9487;50.892;6.906;2022-09-03T13:38:38;26.40;99.90
18717;DHT22;9487;50.892;6.906;2022-09-03T13:41:10;26.30;99.90
18717;DHT22;9487;50.892;6.906;2022-09-03T13:43:42;26.40;99.90
18717;DHT22;9487;50.892;6.906;2022-09-03T13:46:15;26.30;99.90
18717;DHT22;9487;50.892;6.906;2022-09-03T13:48:44;26.40;99.90
18717;DHT22;9487;50.892;6.906;2022-09-03T13:51:30;26.20;99.90
18717;DHT22;9487;50.892;6.906;2022-09-03T13:54:10;26.20;99.90
18717;DHT22;9487;50.892;6.906;2022-09-03T13:56:49;26.30;99.90
18717;DHT22;9487;50.892;6.906;2022-09-03T13:59:27;26.10;99.90
18717;DHT22;9487;50.892;6.906;2022-09-03T14:02:15;26.10;99.90
18717;DHT22;9487;50.892;6.906;2022-09-03T14:04:53;26.10;99.90
18717;DHT22;9487;50.892;6.906;2022-09-03T14:07:27;26.10;99.90
18717;DHT22;9487;50.892;6.906;2022-09-03T14:10:05;26.30;99.90
18717;DHT22;9487;50.892;6.906;2022-09-03T14:12:42;26.50;99.90
18717;DHT22;9487;50.892;6.906;2022-09-03T14:15:17;26.70;99.90
18717;DHT22;9487;50.892;6.906;2022-09-03T14:17:49;26.70;99.90
18717;DHT22;9487;50.892;6.906;2022-09-03T14:20:22;26.80;99.90
18717;DHT22;9487;50.892;6.906;2022-09-03T14:22:53;26.70;99.90
18717;DHT22;9487;50.892;6.906;2022-09-03T14:25:22;26.80;99.90
18717;DHT22;9487;50.892;6.906;2022-09-03T14:27:51;27.00;99.90
18717;DHT22;9487;50.892;6.906;2022-09-03T14:30:30;27.00;99.90
18717;DHT22;9487;50.892;6.906;2022-09-03T14:33:07;27.00;99.90
18717;DHT22;9487;50.892;6.906;2022-09-03T14:35:43;27.10;99.90
18717;DHT22;9487;50.892;6.906;2022-09-03T14:38:28;27.40;99.90
18717;DHT22;9487;50.892;6.906;2022-09-03T14:41:04;27.40;99.90
18717;DHT22;9487;50.892;6.906;2022-09-03T14:47:06;27.80;99.90
18717;DHT22;9487;50.892;6.906;2022-09-03T14:49:52;28.10;99.90
18717;DHT22;9487;50.892;6.906;2022-09-03T14:52:57;28.10;99.90
18717;DHT22;9487;50.892;6.906;2022-09-03T14:55:39;28.00;99.90
18717;DHT22;9487;50.892;6.906;2022-09-03T14:58:34;27.90;99.90
18717;DHT22;9487;50.892;6.906;2022-09-03T15:01:10;27.80;99.90
18717;DHT22;9487;50.892;6.906;2022-09-03T15:04:19;27.70;99.90
18717;DHT22;9487;50.892;6.906;2022-09-03T15:07:08;27.30;99.90
18717;DHT22;9487;50.892;6.906;2022-09-03T15:09:44;27.10;99.90
18717;DHT22;9487;50.892;6.906;2022-09-03T15:12:18;26.90;99.90
18717;DHT22;9487;50.892;6.906;2022-09-03T15:14:52;26.70;99.90
18717;DHT22;9487;50.892;6.906;2022-09-03T15:17:30;26.50;99.90
18717;DHT22;9487;50.892;6.906;2022-09-03T15:26:19;26.30;99.90
18717;DHT22;9487;50.892;6.906;2022-09-03T15:29:02;26.10;99.90
18717;DHT22;9487;50.892;6.906;2022-09-03T15:31:42;26.00;99.90
18717;DHT22;9487;50.892;6.906;2022-09-03T15:34:23;25.90;99.90
18717;DHT22;9487;50.892;6.906;2022-09-03T15:36:57;25.80;99.90
18717;DHT22;9487;50.892;6.906;2022-09-03T15:39:30;25.70;99.90
18717;DHT22;9487;50.892;6.906;2022-09-03T15:42:00;25.70;99.90
18717;DHT22;9487;50.892;6.906;2022-09-03T15:44:34;25.50;99.90
18717;DHT22;9487;50.892;6.906;2022-09-03T15:47:04;25.50;99.90
18717;DHT22;9487;50.892;6.906;2022-09-03T15:49:46;25.40;99.90
18717;DHT22;9487;50.892;6.906;2022-09-03T15:52:30;25.30;99.90
18717;DHT22;9487;50.892;6.906;2022-09-03T15:55:07;25.10;99.90
18717;DHT22;9487;50.892;6.906;2022-09-03T15:57:40;25.20;99.90
18717;DHT22;9487;50.892;6.906;2022-09-03T16:00:12;24.80;99.90
18717;DHT22;9487;50.892;6.906;2022-09-03T16:02:45;24.40;99.90
18717;DHT22;9487;50.892;6.906;2022-09-03T16:05:18;24.00;99.90
18717;DHT22;9487;50.892;6.906;2022-09-03T16:08:08;23.80;99.90
18717;DHT22;9487;50.892;6.906;2022-09-03T16:10:45;23.70;99.90
18717;DHT22;9487;50.892;6.906;2022-09-03T16:16:10;23.40;99.90
18717;DHT22;9487;50.892;6.906;2022-09-03T16:18:42;23.20;99.90
18717;DHT22;9487;50.892;6.906;2022-09-03T16:21:15;23.00;99.90
18717;DHT22;9487;50.892;6.906;2022-09-03T16:23:53;22.90;99.90
18717;DHT22;9487;50.892;6.906;2022-09-03T16:26:28;22.80;99.90
18717;DHT22;9487;50.892;6.906;2022-09-03T16:29:00;22.80;99.90
18717;DHT22;9487;50.892;6.906;2022-09-03T16:31:39;22.70;99.90
18717;DHT22;9487;50.892;6.906;2022-09-03T16:34:11;22.60;99.90
18717;DHT22;9487;50.892;6.906;2022-09-03T16:36:48;22.60;99.90
18717;DHT22;9487;50.892;6.906;2022-09-03T16:39:29;22.70;99.90
18717;DHT22;9487;50.892;6.906;2022-09-03T16:42:03;22.80;99.90